Etusivu
METAR-TAF:

METAR-TAF

Lentoasemat :

Municipal

Tunica, Mississippi, Yhdysvallat

Leveyspiiri: 34-41-06N, Pituuspiiri: 090-20-52W, korkeus merenpinnasta: 59 m

Tämänhetkinen sää

Tämä raportti tehtiin 17 minuuttia sitten, kello 23.55 UTC
Tuuli 3 kn luoteesta
Lämpötila 18°C
Kosteus 94%
Ilmanpaine 1007 hPa
Näkyvyys: 16.1 km
heikkoa sadetta

METAR: KUTA 252355Z AUTO 31003KT 10SM -RA 18/17 A2974 RMK AO2 TSNO

Aika: 19:12 (00:12 UTC)


TAF: puuttuu

Säähavainnot ja -ennusteet yli 4000 lentoasemalta (METAR- ja TAF-raportit).

Käytössä olevat sääasemat on merkitty karttaan keltaisilla ja punaisilla pisteillä.

Aseta hiiri pisteen päälle nähdäksesi sääaseman nimen.

Klikkaa sitten nähdäksesi säähavainnot ja -ennusteet.

Kartan vaihtaminen: klikkaa mustalla rastilla varustettuja vihreitä pisteitä, niin voit zoomata sisään; viivalla varustettua vihreää pistettä, niin voit zoomata ulos tai vihreitä nuolia, niin pääset viereisille kartoille.


METAR-TAF: